Terminal Aerodrome Forecast
Issued by NWS

Home | Current Version | Previous Version | Text Only | Print | Product List | Glossary On
Versions: 1 2 3 4 5 6 7 8 9 10 11 12 13
870
FTUS44 KEPZ 032340
TAFDMN
TAF
KDMN 032340Z 0400/0424 08010KT P6SM SCT040 BKN120
     FM040600 04010KT P6SM FEW040
     FM041200 VRB06KT 2SM BR BKN001
     FM041600 VRB06KT P6SM FEW050 FEW100=

USA.gov is the U.S. government's official web portal to all federal, state and local government web resources and services.